createdAt,value
2018-09-01T00:00:58.406Z,0.00
2018-09-01T00:03:58.393Z,0.00
2018-09-01T00:06:58.343Z,0.00
2018-09-01T00:09:58.348Z,0.00
2018-09-01T00:12:58.294Z,0.00
2018-09-01T00:15:58.223Z,0.00
2018-09-01T00:18:58.212Z,0.00
2018-09-01T00:21:58.150Z,0.00
2018-09-01T00:24:58.138Z,0.00
2018-09-01T00:27:58.101Z,0.00
2018-09-01T00:30:58.055Z,0.00
2018-09-01T00:33:58.046Z,0.00
2018-09-01T00:36:58.013Z,0.00
2018-09-01T00:39:57.955Z,0.00
2018-09-01T00:42:57.941Z,0.00
2018-09-01T00:45:57.933Z,0.00
2018-09-01T00:48:57.850Z,0.00
2018-09-01T00:51:57.847Z,0.00
2018-09-01T00:54:57.814Z,0.00
2018-09-01T00:57:57.736Z,0.00
2018-09-01T01:00:57.731Z,0.00
2018-09-01T01:03:57.681Z,0.00
2018-09-01T01:06:57.705Z,0.00
2018-09-01T01:09:57.591Z,0.00
2018-09-01T01:12:59.510Z,0.00
2018-09-01T01:15:57.636Z,0.00
2018-09-01T01:18:57.533Z,0.00
2018-09-01T01:21:57.468Z,0.00
2018-09-01T01:24:57.458Z,0.00
2018-09-01T01:27:57.416Z,0.00
2018-09-01T01:30:57.364Z,0.00
2018-09-01T01:33:57.403Z,0.00
2018-09-01T01:36:57.364Z,0.00
2018-09-01T01:39:57.289Z,0.00
2018-09-01T01:42:57.257Z,0.00
2018-09-01T01:45:57.252Z,0.00
2018-09-01T01:48:57.200Z,0.00
2018-09-01T01:51:57.161Z,0.00
2018-09-01T01:54:57.127Z,0.00
2018-09-01T01:57:57.050Z,0.00
2018-09-01T02:00:57.069Z,0.00
2018-09-01T02:03:56.983Z,0.00
2018-09-01T02:06:56.988Z,0.00
2018-09-01T02:09:56.923Z,0.00
2018-09-01T02:12:56.886Z,0.00
2018-09-01T02:15:56.888Z,0.00
2018-09-01T02:18:56.852Z,0.00
2018-09-01T02:21:56.814Z,0.00
2018-09-01T02:24:56.772Z,0.00
2018-09-01T02:27:56.715Z,0.00
2018-09-01T02:30:56.722Z,0.00
2018-09-01T02:33:56.676Z,0.00
2018-09-01T02:36:56.659Z,0.00
2018-09-01T02:39:56.593Z,0.00
2018-09-01T02:42:58.476Z,0.00
2018-09-01T02:45:56.500Z,0.00
2018-09-01T02:48:56.499Z,0.00
2018-09-01T02:51:56.448Z,0.00
2018-09-01T02:54:56.437Z,0.00
2018-09-01T02:57:56.386Z,0.00
2018-09-01T03:00:56.357Z,0.00
2018-09-01T03:03:56.295Z,0.00
2018-09-01T03:06:56.347Z,0.00
2018-09-01T03:09:56.240Z,0.00
2018-09-01T03:12:56.213Z,0.00
2018-09-01T03:15:56.199Z,0.00
2018-09-01T03:18:56.138Z,0.00
2018-09-01T03:21:56.085Z,0.00
2018-09-01T03:24:56.089Z,0.00
2018-09-01T03:27:56.033Z,0.00
2018-09-01T03:30:56.032Z,0.00
2018-09-01T03:33:55.959Z,0.00
2018-09-01T03:36:55.959Z,0.00
2018-09-01T03:39:56.475Z,0.00
2018-09-01T03:42:55.941Z,0.00
2018-09-01T03:45:55.810Z,0.00
2018-09-01T03:48:55.815Z,0.00
2018-09-01T03:51:55.771Z,0.00
2018-09-01T03:54:55.729Z,0.00
2018-09-01T03:57:55.690Z,0.00
2018-09-01T04:00:57.472Z,0.00
2018-09-01T04:03:55.632Z,0.00
2018-09-01T04:06:55.633Z,0.00
2018-09-01T04:09:55.563Z,0.00
2018-09-01T04:12:55.548Z,0.00
2018-09-01T04:15:55.492Z,0.00
2018-09-01T04:18:55.473Z,0.00
2018-09-01T04:21:55.409Z,0.00
2018-09-01T04:24:55.400Z,0.00
2018-09-01T04:27:55.351Z,0.00
2018-09-01T04:30:55.337Z,0.00
2018-09-01T04:33:55.263Z,0.00
2018-09-01T04:36:55.251Z,0.00
2018-09-01T04:39:55.200Z,5.62
2018-09-01T04:42:55.202Z,5.62
2018-09-01T04:45:55.129Z,11.25
2018-09-01T04:48:55.136Z,11.25
2018-09-01T04:51:55.076Z,16.88
2018-09-01T04:54:55.036Z,22.50
2018-09-01T04:57:55.007Z,28.12
2018-09-01T05:00:55.128Z,39.38
2018-09-01T05:03:54.914Z,45.00
2018-09-01T05:06:54.936Z,56.25
2018-09-01T05:09:54.911Z,61.88
2018-09-01T05:12:54.867Z,78.75
2018-09-01T05:15:54.800Z,95.62
2018-09-01T05:18:54.773Z,112.50
2018-09-01T05:21:54.715Z,123.75
2018-09-01T05:24:54.703Z,146.25
2018-09-01T05:27:54.666Z,174.38
2018-09-01T05:30:54.638Z,202.50
2018-09-01T05:33:54.608Z,230.62
2018-09-01T05:36:54.615Z,292.50
2018-09-01T05:39:54.508Z,326.25
2018-09-01T05:42:54.526Z,343.12
2018-09-01T05:45:54.453Z,343.12
2018-09-01T05:48:54.448Z,348.75
2018-09-01T05:51:54.375Z,365.62
2018-09-01T05:54:54.347Z,371.25
2018-09-01T05:57:54.299Z,388.12
2018-09-01T06:00:54.270Z,410.62
2018-09-01T06:03:54.234Z,427.50
2018-09-01T06:06:54.220Z,433.12
2018-09-01T06:09:54.231Z,433.12
2018-09-01T06:12:54.145Z,416.25
2018-09-01T06:15:56.944Z,421.88
2018-09-01T06:18:54.156Z,455.62
2018-09-01T06:21:56.935Z,461.25
2018-09-01T06:24:54.139Z,455.62
2018-09-01T06:27:54.018Z,478.12
2018-09-01T06:30:53.963Z,478.12
2018-09-01T06:33:53.913Z,506.25
2018-09-01T06:36:53.903Z,500.62
2018-09-01T06:39:53.816Z,511.88
2018-09-01T06:42:53.864Z,551.25
2018-09-01T06:45:53.775Z,596.25
2018-09-01T06:48:53.775Z,585.00
2018-09-01T06:51:53.696Z,596.25
2018-09-01T06:54:53.710Z,658.12
2018-09-01T06:57:53.621Z,658.12
2018-09-01T07:00:53.630Z,652.50
2018-09-01T07:03:53.552Z,725.62
2018-09-01T07:06:53.545Z,765.00
2018-09-01T07:09:53.482Z,776.25
2018-09-01T07:12:53.464Z,916.88
2018-09-01T07:15:53.424Z,961.88
2018-09-01T07:18:53.397Z,1018.12
2018-09-01T07:21:53.349Z,1108.12
2018-09-01T07:24:53.325Z,815.62
2018-09-01T07:27:53.293Z,731.25
2018-09-01T07:30:53.613Z,646.88
2018-09-01T07:33:53.232Z,613.12
2018-09-01T07:36:53.203Z,618.75
2018-09-01T07:39:53.149Z,618.75
2018-09-01T07:42:53.143Z,607.50
2018-09-01T07:45:53.081Z,613.12
2018-09-01T07:48:53.161Z,630.00
2018-09-01T07:51:53.135Z,630.00
2018-09-01T07:54:53.107Z,646.88
2018-09-01T07:57:53.010Z,646.88
2018-09-01T08:00:52.949Z,641.25
2018-09-01T08:03:52.914Z,635.62
2018-09-01T08:06:52.887Z,658.12
2018-09-01T08:09:52.836Z,652.50
2018-09-01T08:12:52.827Z,652.50
2018-09-01T08:15:52.761Z,669.38
2018-09-01T08:18:52.741Z,686.25
2018-09-01T08:21:52.687Z,714.38
2018-09-01T08:24:52.669Z,1029.38
2018-09-01T08:27:52.635Z,1366.88
2018-09-01T08:30:52.610Z,1389.38
2018-09-01T08:33:52.618Z,1496.25
2018-09-01T08:36:52.593Z,1524.38
2018-09-01T08:39:52.574Z,1591.88
2018-09-01T08:42:52.504Z,1603.12
2018-09-01T08:45:53.620Z,1631.25
2018-09-01T08:48:52.443Z,1659.38
2018-09-01T08:51:52.397Z,1732.50
2018-09-01T08:54:52.363Z,1771.88
2018-09-01T08:57:52.305Z,1828.12
2018-09-01T09:00:52.378Z,1771.88
2018-09-01T09:03:52.285Z,1805.62
2018-09-01T09:06:54.425Z,1811.25
2018-09-01T09:09:52.204Z,1890.00
2018-09-01T09:12:52.170Z,1918.12
2018-09-01T09:15:52.124Z,1963.12
2018-09-01T09:18:52.121Z,2064.38
2018-09-01T09:21:52.062Z,1991.25
2018-09-01T09:24:52.108Z,765.00
2018-09-01T09:27:52.009Z,2036.25
2018-09-01T09:30:51.972Z,2058.75
2018-09-01T09:33:51.936Z,2025.00
2018-09-01T09:36:51.909Z,1620.00
2018-09-01T09:39:51.935Z,1957.50
2018-09-01T09:42:51.843Z,2002.50
2018-09-01T09:45:51.801Z,2041.88
2018-09-01T09:48:51.801Z,2041.88
2018-09-01T09:51:51.769Z,2092.50
2018-09-01T09:54:51.778Z,2131.88
2018-09-01T09:57:51.752Z,2143.12
2018-09-01T10:00:51.808Z,2182.50
2018-09-01T10:03:51.637Z,2205.00
2018-09-01T10:06:51.682Z,2165.62
2018-09-01T10:09:51.554Z,2171.25
2018-09-01T10:12:51.688Z,2244.38
2018-09-01T10:15:51.669Z,2289.38
2018-09-01T10:18:51.475Z,2227.50
2018-09-01T10:21:51.467Z,2266.88
2018-09-01T10:24:51.422Z,2272.50
2018-09-01T10:27:51.384Z,2295.00
2018-09-01T10:30:51.433Z,2233.12
2018-09-01T10:33:51.352Z,2154.38
2018-09-01T10:36:52.465Z,2334.38
2018-09-01T10:39:51.264Z,2401.88
2018-09-01T10:42:51.269Z,2272.50
2018-09-01T10:45:51.236Z,2362.50
2018-09-01T10:48:51.191Z,2362.50
2018-09-01T10:51:51.134Z,1192.50
2018-09-01T10:54:51.141Z,2081.25
2018-09-01T10:57:51.126Z,2165.62
2018-09-01T11:00:51.071Z,2368.12
2018-09-01T11:03:51.021Z,658.12
2018-09-01T11:06:51.046Z,2283.75
2018-09-01T11:09:50.959Z,2340.00
2018-09-01T11:12:50.953Z,2452.50
2018-09-01T11:15:50.899Z,675.00
2018-09-01T11:18:50.896Z,641.25
2018-09-01T11:21:50.824Z,765.00
2018-09-01T11:24:50.810Z,2396.25
2018-09-01T11:27:50.822Z,2362.50
2018-09-01T11:30:50.746Z,1771.88
2018-09-01T11:33:50.729Z,2317.50
2018-09-01T11:36:51.140Z,2435.62
2018-09-01T11:39:50.671Z,2435.62
2018-09-01T11:42:50.724Z,2503.12
2018-09-01T11:45:50.596Z,2615.62
2018-09-01T11:48:50.597Z,2615.62
2018-09-01T11:51:50.553Z,2643.75
2018-09-01T11:54:50.532Z,2604.38
2018-09-01T11:57:50.478Z,2604.38
2018-09-01T12:00:50.457Z,843.75
2018-09-01T12:03:50.439Z,2255.62
2018-09-01T12:06:50.439Z,2536.88
2018-09-01T12:09:50.368Z,2655.00
2018-09-01T12:12:50.359Z,2576.25
2018-09-01T12:15:50.446Z,1333.12
2018-09-01T12:18:51.959Z,2396.25
2018-09-01T12:21:50.270Z,2160.00
2018-09-01T12:24:50.216Z,2317.50
2018-09-01T12:27:50.208Z,2356.88
2018-09-01T12:30:50.196Z,2221.88
2018-09-01T12:33:50.131Z,2193.75
2018-09-01T12:36:50.149Z,2081.25
2018-09-01T12:39:50.058Z,2030.62
2018-09-01T12:42:50.085Z,2092.50
2018-09-01T12:45:50.010Z,2070.00
2018-09-01T12:48:49.987Z,2041.88
2018-09-01T12:51:49.946Z,2115.00
2018-09-01T12:54:49.925Z,2120.62
2018-09-01T12:57:49.977Z,2120.62
2018-09-01T13:00:49.980Z,2176.88
2018-09-01T13:03:50.133Z,1884.38
2018-09-01T13:06:49.903Z,1788.75
2018-09-01T13:09:49.830Z,1704.38
2018-09-01T13:12:49.899Z,1777.50
2018-09-01T13:15:49.700Z,1299.38
2018-09-01T13:18:49.695Z,1755.00
2018-09-01T13:21:49.652Z,1788.75
2018-09-01T13:24:49.628Z,1755.00
2018-09-01T13:27:49.689Z,1681.88
2018-09-01T13:30:49.636Z,1636.88
2018-09-01T13:33:49.591Z,1102.50
2018-09-01T13:36:49.541Z,1563.75
2018-09-01T13:39:49.509Z,1546.88
2018-09-01T13:42:49.475Z,1648.12
2018-09-01T13:45:49.425Z,1591.88
2018-09-01T13:48:49.406Z,1665.00
2018-09-01T13:51:49.398Z,1698.75
2018-09-01T13:54:49.323Z,1591.88
2018-09-01T13:57:49.284Z,1614.38
2018-09-01T14:00:49.281Z,1625.62
2018-09-01T14:03:49.221Z,1670.62
2018-09-01T14:06:50.995Z,1721.25
2018-09-01T14:09:49.182Z,1738.12
2018-09-01T14:12:49.130Z,1726.88
2018-09-01T14:15:49.084Z,1681.88
2018-09-01T14:18:49.118Z,1648.12
2018-09-01T14:21:49.015Z,1625.62
2018-09-01T14:24:48.997Z,1665.00
2018-09-01T14:27:48.951Z,1620.00
2018-09-01T14:30:48.961Z,1614.38
2018-09-01T14:33:48.911Z,1535.62
2018-09-01T14:36:52.946Z,1535.62
2018-09-01T14:39:48.846Z,1473.75
2018-09-01T14:42:48.807Z,1535.62
2018-09-01T14:45:48.765Z,1518.75
2018-09-01T14:48:48.749Z,1406.25
2018-09-01T14:51:48.696Z,1434.38
2018-09-01T14:54:48.688Z,1428.75
2018-09-01T14:57:48.636Z,1383.75
2018-09-01T15:00:48.619Z,1350.00
2018-09-01T15:03:48.579Z,1327.50
2018-09-01T15:06:48.555Z,1327.50
2018-09-01T15:09:48.504Z,1299.38
2018-09-01T15:12:48.488Z,1248.75
2018-09-01T15:15:48.556Z,1237.50
2018-09-01T15:18:48.502Z,1254.38
2018-09-01T15:21:48.469Z,1153.12
2018-09-01T15:24:48.456Z,1023.75
2018-09-01T15:27:48.445Z,1001.25
2018-09-01T15:30:48.371Z,990.00
2018-09-01T15:33:48.361Z,1001.25
2018-09-01T15:36:48.499Z,1006.88
2018-09-01T15:39:48.265Z,995.62
2018-09-01T15:42:48.296Z,973.12
2018-09-01T15:45:48.153Z,956.25
2018-09-01T15:48:48.141Z,978.75
2018-09-01T15:51:48.048Z,911.25
2018-09-01T15:54:48.210Z,871.88
2018-09-01T15:57:48.041Z,810.00
2018-09-01T16:00:48.214Z,759.38
2018-09-01T16:03:47.966Z,703.12
2018-09-01T16:06:47.928Z,691.88
2018-09-01T16:09:47.834Z,663.75
2018-09-01T16:12:47.837Z,635.62
2018-09-01T16:15:47.813Z,388.12
2018-09-01T16:18:47.753Z,337.50
2018-09-01T16:21:47.750Z,500.62
2018-09-01T16:24:47.678Z,540.00
2018-09-01T16:27:47.669Z,489.38
2018-09-01T16:30:47.627Z,472.50
2018-09-01T16:33:47.565Z,466.88
2018-09-01T16:36:47.564Z,393.75
2018-09-01T16:39:47.557Z,461.25
2018-09-01T16:42:47.520Z,472.50
2018-09-01T16:45:47.431Z,472.50
2018-09-01T16:48:47.412Z,461.25
2018-09-01T16:51:47.386Z,455.62
2018-09-01T16:54:47.342Z,461.25
2018-09-01T16:57:47.304Z,438.75
2018-09-01T17:00:47.332Z,405.00
2018-09-01T17:03:47.226Z,376.88
2018-09-01T17:06:47.233Z,236.25
2018-09-01T17:09:47.245Z,298.12
2018-09-01T17:12:47.221Z,309.38
2018-09-01T17:15:47.157Z,292.50
2018-09-01T17:18:47.153Z,281.25
2018-09-01T17:21:47.119Z,270.00
2018-09-01T17:24:48.572Z,258.75
2018-09-01T17:27:47.035Z,241.88
2018-09-01T17:30:47.011Z,225.00
2018-09-01T17:33:47.027Z,208.12
2018-09-01T17:36:46.951Z,168.75
2018-09-01T17:39:46.936Z,157.50
2018-09-01T17:42:46.837Z,140.62
2018-09-01T17:45:46.854Z,118.12
2018-09-01T17:48:46.813Z,106.88
2018-09-01T17:51:46.729Z,84.38
2018-09-01T17:54:46.716Z,78.75
2018-09-01T17:57:46.645Z,67.50
2018-09-01T18:00:46.652Z,56.25
2018-09-01T18:03:46.608Z,50.62
2018-09-01T18:06:46.559Z,45.00
2018-09-01T18:09:46.504Z,33.75
2018-09-01T18:12:46.457Z,28.12
2018-09-01T18:15:46.428Z,22.50
2018-09-01T18:18:46.482Z,16.88
2018-09-01T18:21:46.364Z,11.25
2018-09-01T18:24:46.341Z,5.62
2018-09-01T18:27:46.269Z,5.62
2018-09-01T18:30:46.255Z,5.62
2018-09-01T18:33:46.205Z,0.00
2018-09-01T18:36:46.211Z,0.00
2018-09-01T18:39:46.167Z,0.00
2018-09-01T18:42:46.205Z,0.00
2018-09-01T18:45:46.378Z,0.00
2018-09-01T18:48:46.069Z,0.00
2018-09-01T18:51:46.010Z,0.00
2018-09-01T18:54:46.100Z,0.00
2018-09-01T18:57:45.967Z,0.00
2018-09-01T19:00:45.919Z,0.00
2018-09-01T19:03:45.911Z,0.00
2018-09-01T19:06:45.860Z,0.00
2018-09-01T19:09:45.883Z,0.00
2018-09-01T19:12:45.874Z,0.00
2018-09-01T19:15:45.768Z,0.00
2018-09-01T19:18:45.821Z,0.00
2018-09-01T19:21:45.791Z,0.00
2018-09-01T19:24:45.738Z,0.00
2018-09-01T19:27:46.578Z,0.00
2018-09-01T19:30:45.638Z,0.00
2018-09-01T19:33:45.564Z,0.00
2018-09-01T19:36:45.531Z,0.00
2018-09-01T19:39:45.504Z,0.00
2018-09-01T19:42:45.461Z,0.00
2018-09-01T19:45:45.432Z,0.00
2018-09-01T19:48:45.390Z,0.00
2018-09-01T19:51:45.337Z,0.00
2018-09-01T19:54:45.333Z,0.00
2018-09-01T19:57:45.306Z,0.00
2018-09-01T20:00:45.255Z,0.00
2018-09-01T20:03:45.197Z,0.00
2018-09-01T20:06:45.200Z,0.00
2018-09-01T20:09:45.128Z,0.00
2018-09-01T20:12:45.129Z,0.00
2018-09-01T20:15:49.190Z,0.00
2018-09-01T20:18:47.461Z,0.00
2018-09-01T20:21:45.015Z,0.00
2018-09-01T20:24:44.989Z,0.00
2018-09-01T20:27:44.922Z,0.00
2018-09-01T20:30:44.910Z,0.00
2018-09-01T20:33:44.860Z,0.00
2018-09-01T20:36:45.857Z,0.00
2018-09-01T20:39:44.806Z,0.00
2018-09-01T20:42:44.810Z,0.00
2018-09-01T20:45:44.730Z,0.00
2018-09-01T20:48:44.722Z,0.00
2018-09-01T20:51:44.694Z,0.00
2018-09-01T20:54:44.647Z,0.00
2018-09-01T20:57:44.679Z,0.00
2018-09-01T21:00:45.560Z,0.00
2018-09-01T21:03:44.553Z,0.00
2018-09-01T21:06:44.998Z,0.00
2018-09-01T21:09:44.449Z,0.00
2018-09-01T21:12:44.450Z,0.00
2018-09-01T21:15:44.403Z,0.00
2018-09-01T21:18:44.364Z,0.00
2018-09-01T21:21:44.319Z,0.00
2018-09-01T21:24:44.300Z,0.00
2018-09-01T21:27:44.266Z,0.00
2018-09-01T21:30:44.231Z,0.00
2018-09-01T21:33:44.180Z,0.00
2018-09-01T21:36:45.998Z,0.00
2018-09-01T21:39:45.156Z,0.00
2018-09-01T21:44:13.185Z,0.00
2018-09-01T21:47:13.132Z,0.00
2018-09-01T21:50:13.160Z,0.00
2018-09-01T21:53:13.084Z,0.00
2018-09-01T21:56:13.282Z,0.00
2018-09-01T21:59:12.977Z,0.00
2018-09-01T22:02:13.009Z,0.00
2018-09-01T22:05:12.882Z,0.00
2018-09-01T22:08:12.870Z,0.00
2018-09-01T22:11:12.817Z,0.00
2018-09-01T22:14:14.208Z,0.00
2018-09-01T22:17:12.770Z,0.00
2018-09-01T22:20:12.638Z,0.00
2018-09-01T22:23:12.575Z,0.00
2018-09-01T22:26:12.679Z,0.00
2018-09-01T22:29:12.655Z,0.00
2018-09-01T22:32:12.640Z,0.00
2018-09-01T22:35:12.483Z,0.00
2018-09-01T22:38:12.442Z,0.00
2018-09-01T22:41:12.517Z,0.00
2018-09-01T22:44:12.506Z,0.00
2018-09-01T22:47:12.510Z,0.00
2018-09-01T22:50:12.290Z,0.00
2018-09-01T22:53:12.419Z,0.00
2018-09-01T22:57:22.636Z,0.00
2018-09-01T23:00:22.552Z,0.00
2018-09-01T23:03:22.548Z,0.00
2018-09-01T23:06:22.522Z,0.00
2018-09-01T23:09:22.507Z,0.00
2018-09-01T23:12:22.339Z,0.00
2018-09-01T23:16:33.668Z,0.00
2018-09-01T23:19:33.727Z,0.00
2018-09-01T23:22:33.648Z,0.00
2018-09-01T23:25:33.599Z,0.00
2018-09-01T23:28:33.809Z,0.00
2018-09-01T23:31:33.492Z,0.00
2018-09-01T23:34:33.511Z,0.00
2018-09-01T23:37:33.534Z,0.00
2018-09-01T23:40:33.415Z,0.00
2018-09-01T23:43:33.406Z,0.00
2018-09-01T23:46:33.316Z,0.00
2018-09-01T23:49:33.236Z,0.00
2018-09-01T23:52:33.228Z,0.00
2018-09-01T23:55:33.239Z,0.00
2018-09-01T23:58:33.039Z,0.00
